Аэропорт: Мирный. Мирный

ICAO: UERR

METAR:
2020-10-23 10:00:00
UERR 231000Z 21003MPS 9999 SCT030 03/M01 Q1002 R25/150145 NOSIG RMK QFE721/0961
METAR:
2020-10-23 08:00:00
TAF UERR 230800Z 2309/2409 23006G13MPS 9999 BKN015CB TEMPO 2309/2312 4000 -SHRASN SCT007 BKN015CB BECMG 2312/2314 28006G12MPS BECMG 2405/2407 20003MPS